createdAt,value
2022-12-20T00:02:21.061Z,9.50
2022-12-20T00:04:47.756Z,9.80
2022-12-20T00:07:14.923Z,9.50
2022-12-20T00:09:41.807Z,10.90
2022-12-20T00:12:08.207Z,14.50
2022-12-20T00:14:34.727Z,12.10
2022-12-20T00:17:01.160Z,11.80
2022-12-20T00:19:27.577Z,14.00
2022-12-20T00:21:54.349Z,11.40
2022-12-20T00:24:26.493Z,11.50
2022-12-20T00:26:53.310Z,10.00
2022-12-20T00:29:19.870Z,11.20
2022-12-20T00:31:46.520Z,10.70
2022-12-20T00:34:13.189Z,11.80
2022-12-20T00:36:40.145Z,12.90
2022-12-20T00:39:06.679Z,10.10
2022-12-20T00:41:34.661Z,10.70
2022-12-20T00:44:02.498Z,11.30
2022-12-20T00:46:29.753Z,10.10
2022-12-20T00:48:56.528Z,10.40
2022-12-20T00:51:29.220Z,10.30
2022-12-20T00:53:55.714Z,12.80
2022-12-20T00:56:22.601Z,13.30
2022-12-20T00:58:49.696Z,10.30
2022-12-20T01:01:25.665Z,12.00
2022-12-20T01:03:53.462Z,10.60
2022-12-20T01:06:21.592Z,11.00
2022-12-20T01:08:48.314Z,11.20
2022-12-20T01:11:18.594Z,12.30
2022-12-20T01:13:48.522Z,11.10
2022-12-20T01:16:29.880Z,14.20
2022-12-20T01:18:56.882Z,10.60
2022-12-20T01:21:25.156Z,10.90
2022-12-20T01:23:52.312Z,12.50
2022-12-20T01:26:21.813Z,11.70
2022-12-20T01:28:51.938Z,11.10
2022-12-20T01:31:20.455Z,11.30
2022-12-20T01:33:48.063Z,11.30
2022-12-20T01:36:21.245Z,11.60
2022-12-20T01:38:48.068Z,10.90
2022-12-20T01:41:17.941Z,11.90
2022-12-20T01:44:00.728Z,11.90
2022-12-20T01:46:30.582Z,13.20
2022-12-20T01:49:08.254Z,10.80
2022-12-20T01:51:39.780Z,11.10
2022-12-20T01:56:58.577Z,13.00
2022-12-20T01:59:27.233Z,12.40
2022-12-20T02:01:58.089Z,11.80
2022-12-20T02:04:25.347Z,11.80
2022-12-20T02:06:51.804Z,12.80
2022-12-20T02:09:18.544Z,13.10
2022-12-20T02:12:11.854Z,15.20
2022-12-20T02:15:00.218Z,14.50
2022-12-20T02:18:07.041Z,14.30
2022-12-20T02:21:04.519Z,14.30
2022-12-20T02:24:08.634Z,14.60
2022-12-20T02:26:53.390Z,13.10
2022-12-20T02:29:37.580Z,15.30
2022-12-20T02:32:24.867Z,14.00
2022-12-20T02:34:52.036Z,14.10
2022-12-20T02:37:18.577Z,13.50
2022-12-20T02:39:46.464Z,16.20
2022-12-20T02:42:15.475Z,17.10
2022-12-20T02:44:52.050Z,15.60
2022-12-20T02:47:24.883Z,14.80
2022-12-20T02:49:54.016Z,16.00
2022-12-20T02:52:23.578Z,15.70
2022-12-20T02:54:50.166Z,19.60
2022-12-20T02:57:26.588Z,16.50
2022-12-20T03:00:02.577Z,14.40
2022-12-20T03:02:30.485Z,15.00
2022-12-20T03:04:58.652Z,18.20
2022-12-20T03:07:25.155Z,18.10
2022-12-20T03:09:51.571Z,16.00
2022-12-20T03:12:17.973Z,16.10
2022-12-20T03:14:44.502Z,16.50
2022-12-20T03:17:11.141Z,14.60
2022-12-20T03:19:37.780Z,13.90
2022-12-20T03:22:04.553Z,16.50
2022-12-20T03:24:31.051Z,13.90
2022-12-20T03:26:57.583Z,16.60
2022-12-20T03:29:24.145Z,16.70
2022-12-20T03:31:50.543Z,14.80
2022-12-20T03:34:17.079Z,16.60
2022-12-20T03:36:43.742Z,17.10
2022-12-20T03:39:10.192Z,16.90
2022-12-20T03:41:37.439Z,19.20
2022-12-20T03:44:04.242Z,19.10
2022-12-20T03:46:30.762Z,26.50
2022-12-20T03:48:57.254Z,31.80
2022-12-20T03:51:23.828Z,22.00
2022-12-20T03:53:50.365Z,23.00
2022-12-20T03:56:16.911Z,21.40
2022-12-20T03:58:43.447Z,19.80
2022-12-20T04:01:21.566Z,17.10
2022-12-20T04:03:48.597Z,16.00
2022-12-20T04:06:15.813Z,16.40
2022-12-20T04:08:42.267Z,17.50
2022-12-20T04:11:09.161Z,17.90
2022-12-20T04:13:35.691Z,16.50
2022-12-20T04:16:02.197Z,18.40
2022-12-20T04:18:28.826Z,15.10
2022-12-20T04:20:55.436Z,16.00
2022-12-20T04:23:22.191Z,18.80
2022-12-20T04:25:48.944Z,19.50
2022-12-20T04:28:15.377Z,19.00
2022-12-20T04:30:41.811Z,22.30
2022-12-20T04:33:08.463Z,18.20
2022-12-20T04:35:34.921Z,17.60
2022-12-20T04:38:01.395Z,20.30
2022-12-20T04:40:27.973Z,18.40
2022-12-20T04:42:54.619Z,19.30
2022-12-20T04:45:21.066Z,18.30
2022-12-20T04:47:47.508Z,21.10
2022-12-20T04:50:14.032Z,19.90
2022-12-20T04:52:47.118Z,20.70
2022-12-20T04:55:14.614Z,21.70
2022-12-20T04:57:41.142Z,20.00
2022-12-20T05:00:08.925Z,19.10
2022-12-20T05:02:35.527Z,20.10
2022-12-20T05:05:02.724Z,18.30
2022-12-20T05:07:29.190Z,19.20
2022-12-20T05:09:55.645Z,21.00
2022-12-20T05:12:22.082Z,20.00
2022-12-20T05:14:48.556Z,25.20
2022-12-20T05:17:15.194Z,22.60
2022-12-20T05:19:41.587Z,17.60
2022-12-20T05:22:10.724Z,20.30
2022-12-20T05:24:37.203Z,19.00
2022-12-20T05:27:03.980Z,20.50
2022-12-20T05:29:30.610Z,24.90
2022-12-20T05:31:57.235Z,23.20
2022-12-20T05:34:23.774Z,22.80
2022-12-20T05:36:50.495Z,21.70
2022-12-20T05:39:17.133Z,21.90
2022-12-20T05:41:43.576Z,28.20
2022-12-20T05:44:10.104Z,23.70
2022-12-20T05:46:36.719Z,33.40
2022-12-20T05:49:03.258Z,19.60
2022-12-20T05:51:29.707Z,22.80
2022-12-20T05:53:56.179Z,33.90
2022-12-20T05:56:22.732Z,22.80
2022-12-20T05:58:49.268Z,19.90
2022-12-20T06:01:15.731Z,17.40
2022-12-20T06:03:42.367Z,18.90
2022-12-20T06:06:13.837Z,18.80
2022-12-20T06:08:40.830Z,19.10
2022-12-20T06:11:07.295Z,20.30
2022-12-20T06:13:33.938Z,24.00
2022-12-20T06:16:00.826Z,19.70
2022-12-20T06:18:27.510Z,21.60
2022-12-20T06:20:54.458Z,23.70
2022-12-20T06:23:21.317Z,22.80
2022-12-20T06:25:48.366Z,26.60
2022-12-20T06:28:14.762Z,30.80
2022-12-20T06:30:41.228Z,26.40
2022-12-20T06:33:07.995Z,22.10
2022-12-20T06:35:34.403Z,23.50
2022-12-20T06:38:00.970Z,19.10
2022-12-20T06:40:27.506Z,21.10
2022-12-20T06:42:53.957Z,21.10
2022-12-20T06:45:20.489Z,22.90
2022-12-20T06:47:47.006Z,26.10
2022-12-20T06:50:13.418Z,27.10
2022-12-20T06:52:39.858Z,26.40
2022-12-20T06:55:06.953Z,28.60
2022-12-20T06:57:33.387Z,25.30
2022-12-20T06:59:59.926Z,27.00
2022-12-20T07:02:27.876Z,25.00
2022-12-20T07:04:55.122Z,23.70
2022-12-20T07:07:21.692Z,27.80
2022-12-20T07:09:48.143Z,22.10
2022-12-20T07:12:14.721Z,44.10
2022-12-20T07:14:41.208Z,28.60
2022-12-20T07:17:08.200Z,24.20
2022-12-20T07:19:35.819Z,24.80
2022-12-20T07:22:04.210Z,39.70
2022-12-20T07:24:30.627Z,31.90
2022-12-20T07:26:57.182Z,27.10
2022-12-20T07:29:24.132Z,29.30
2022-12-20T07:31:52.768Z,31.60
2022-12-20T07:34:19.579Z,26.90
2022-12-20T07:36:46.131Z,32.50
2022-12-20T07:39:12.745Z,26.00
2022-12-20T07:41:40.220Z,27.80
2022-12-20T07:44:06.786Z,29.50
2022-12-20T07:46:33.736Z,23.20
2022-12-20T07:49:00.453Z,24.40
2022-12-20T07:51:31.112Z,21.20
2022-12-20T07:54:11.872Z,24.30
2022-12-20T07:56:42.961Z,25.60
2022-12-20T07:59:14.032Z,37.30
2022-12-20T08:01:43.972Z,40.20
2022-12-20T08:04:21.323Z,34.60
2022-12-20T08:06:49.807Z,32.20
2022-12-20T08:09:16.899Z,37.00
2022-12-20T08:11:47.228Z,25.40
2022-12-20T08:14:14.522Z,41.50
2022-12-20T08:16:41.070Z,61.80
2022-12-20T08:19:08.494Z,40.00
2022-12-20T08:21:35.236Z,37.50
2022-12-20T08:24:03.236Z,41.00
2022-12-20T08:26:29.964Z,30.30
2022-12-20T08:28:56.707Z,27.80
2022-12-20T08:31:23.500Z,25.80
2022-12-20T08:33:55.015Z,24.10
2022-12-20T08:36:21.651Z,25.40
2022-12-20T08:38:48.188Z,26.80
2022-12-20T08:41:15.978Z,24.30
2022-12-20T08:43:43.075Z,22.90
2022-12-20T08:46:11.046Z,22.30
2022-12-20T08:48:37.559Z,21.00
2022-12-20T08:51:07.510Z,25.90
2022-12-20T08:53:35.839Z,20.80
2022-12-20T08:56:17.332Z,24.90
2022-12-20T09:01:14.047Z,21.80
2022-12-20T09:03:41.542Z,20.00
2022-12-20T09:06:10.716Z,27.30
2022-12-20T09:08:39.024Z,23.80
2022-12-20T09:11:09.775Z,23.30
2022-12-20T09:13:41.660Z,25.40
2022-12-20T09:16:11.383Z,24.90
2022-12-20T09:18:37.876Z,27.30
2022-12-20T09:21:06.480Z,24.30
2022-12-20T09:23:34.755Z,27.60
2022-12-20T09:26:03.509Z,32.70
2022-12-20T09:28:30.882Z,39.20
2022-12-20T09:31:02.225Z,37.20
2022-12-20T09:35:55.641Z,37.60
2022-12-20T09:38:22.163Z,31.60
2022-12-20T09:40:52.209Z,32.00
2022-12-20T09:43:20.381Z,44.80
2022-12-20T09:45:48.773Z,33.10
2022-12-20T09:48:20.101Z,35.30
2022-12-20T09:51:18.576Z,34.80
2022-12-20T09:53:54.056Z,41.50
2022-12-20T09:56:26.519Z,45.40
2022-12-20T09:59:06.328Z,46.30
2022-12-20T10:01:39.497Z,41.90
2022-12-20T10:04:30.729Z,38.80
2022-12-20T10:07:33.467Z,40.10
2022-12-20T10:10:28.481Z,33.50
2022-12-20T10:13:00.941Z,33.60
2022-12-20T10:15:37.452Z,28.90
2022-12-20T10:18:06.756Z,29.30
2022-12-20T10:20:54.126Z,28.40
2022-12-20T10:23:44.791Z,25.30
2022-12-20T10:26:12.984Z,28.60
2022-12-20T10:28:40.239Z,26.10
2022-12-20T10:31:12.755Z,28.70
2022-12-20T10:33:40.569Z,34.10
2022-12-20T10:36:27.549Z,34.40
2022-12-20T10:38:57.719Z,28.50
2022-12-20T10:41:30.324Z,26.40
2022-12-20T10:44:06.271Z,23.30
2022-12-20T10:46:42.518Z,21.80
2022-12-20T10:49:41.739Z,22.80
2022-12-20T10:52:08.224Z,19.00
2022-12-20T10:54:37.800Z,22.00
2022-12-20T10:57:28.399Z,23.50
2022-12-20T11:00:01.450Z,22.20
2022-12-20T11:02:41.555Z,21.10
2022-12-20T11:05:10.781Z,20.20
2022-12-20T11:08:24.581Z,26.30
2022-12-20T11:10:38.124Z,24.20
2022-12-20T11:13:04.579Z,26.80
2022-12-20T11:15:34.791Z,30.70
2022-12-20T11:18:13.847Z,26.40
2022-12-20T11:20:58.940Z,28.30
2022-12-20T11:24:06.416Z,26.50
2022-12-20T11:27:11.962Z,22.70
2022-12-20T11:29:50.745Z,21.00
2022-12-20T11:32:48.883Z,24.20
2022-12-20T11:35:39.794Z,27.80
2022-12-20T11:38:29.085Z,27.20
2022-12-20T11:41:01.032Z,27.30
2022-12-20T11:44:15.646Z,24.30
2022-12-20T11:46:46.799Z,25.30
2022-12-20T11:49:50.812Z,31.50
2022-12-20T11:52:39.217Z,25.80
2022-12-20T11:55:18.663Z,23.90
2022-12-20T11:58:21.358Z,25.80
2022-12-20T12:00:56.086Z,24.70
2022-12-20T12:03:34.785Z,28.70
2022-12-20T12:06:12.417Z,27.30
2022-12-20T12:08:49.048Z,27.40
2022-12-20T12:12:04.040Z,24.50
2022-12-20T12:14:18.066Z,23.10
2022-12-20T12:16:51.432Z,27.40
2022-12-20T12:19:18.057Z,26.10
2022-12-20T12:21:51.340Z,28.60
2022-12-20T12:24:29.078Z,31.60
2022-12-20T12:26:56.083Z,26.60
2022-12-20T12:29:22.593Z,24.20
2022-12-20T12:31:55.248Z,22.60
2022-12-20T12:34:45.829Z,22.00
2022-12-20T12:37:31.158Z,26.50
2022-12-20T12:40:06.871Z,22.90
2022-12-20T12:42:53.816Z,23.30
2022-12-20T12:45:28.279Z,22.90
2022-12-20T12:48:01.418Z,25.20
2022-12-20T12:50:32.435Z,28.10
2022-12-20T12:53:15.993Z,29.80
2022-12-20T12:55:45.193Z,39.30
2022-12-20T12:58:32.256Z,45.50
2022-12-20T13:01:01.771Z,60.40
2022-12-20T13:03:45.368Z,63.20
2022-12-20T13:06:24.234Z,29.10
2022-12-20T13:08:56.774Z,37.00
2022-12-20T13:11:36.237Z,29.80
2022-12-20T13:14:31.941Z,28.80
2022-12-20T13:17:13.723Z,29.50
2022-12-20T13:19:53.628Z,26.70
2022-12-20T13:22:22.613Z,26.40
2022-12-20T13:24:54.041Z,31.20
2022-12-20T13:30:08.943Z,28.30
2022-12-20T13:32:47.740Z,26.90
2022-12-20T13:35:26.426Z,26.20
2022-12-20T13:37:55.059Z,24.50
2022-12-20T13:40:45.209Z,31.40
2022-12-20T13:43:20.691Z,28.70
2022-12-20T13:46:13.022Z,26.70
2022-12-20T13:48:50.096Z,30.20
2022-12-20T13:51:27.659Z,31.30
2022-12-20T13:54:08.535Z,36.80
2022-12-20T13:56:47.358Z,27.50
2022-12-20T13:59:27.547Z,33.50
2022-12-20T14:02:00.235Z,34.40
2022-12-20T14:04:45.073Z,39.50
2022-12-20T14:07:19.326Z,35.60
2022-12-20T14:09:54.630Z,34.40
2022-12-20T14:12:26.452Z,43.40
2022-12-20T14:14:57.034Z,41.90
2022-12-20T14:17:29.888Z,53.70
2022-12-20T14:20:13.044Z,43.40
2022-12-20T14:23:00.738Z,50.30
2022-12-20T14:25:56.694Z,45.60
2022-12-20T14:28:44.153Z,57.10
2022-12-20T14:31:32.716Z,60.00
2022-12-20T14:34:11.203Z,51.40
2022-12-20T14:36:39.635Z,57.40
2022-12-20T14:39:28.525Z,54.00
2022-12-20T14:42:07.930Z,49.00
2022-12-20T14:44:34.470Z,60.60
2022-12-20T14:47:12.950Z,57.60
2022-12-20T14:49:39.866Z,42.00
2022-12-20T14:52:13.153Z,41.40
2022-12-20T14:55:09.045Z,55.20
2022-12-20T14:57:36.659Z,46.50
2022-12-20T15:00:20.354Z,32.10
2022-12-20T15:02:56.970Z,29.20
2022-12-20T15:05:41.054Z,35.10
2022-12-20T15:08:16.858Z,35.20
2022-12-20T15:10:56.410Z,34.00
2022-12-20T15:13:32.513Z,33.90
2022-12-20T15:16:04.698Z,34.80
2022-12-20T15:18:31.692Z,37.60
2022-12-20T15:21:13.822Z,44.10
2022-12-20T15:23:49.253Z,41.00
2022-12-20T15:26:17.664Z,39.30
2022-12-20T15:28:44.656Z,41.70
2022-12-20T15:31:13.022Z,38.90
2022-12-20T15:33:42.024Z,42.40
2022-12-20T15:36:17.522Z,39.20
2022-12-20T15:41:33.093Z,35.20
2022-12-20T15:44:05.817Z,43.40
2022-12-20T15:46:33.016Z,39.90
2022-12-20T15:48:59.921Z,39.50
2022-12-20T15:51:35.260Z,38.50
2022-12-20T15:54:04.362Z,50.20
2022-12-20T15:56:30.907Z,66.50
2022-12-20T15:58:57.403Z,59.60
2022-12-20T16:01:40.771Z,54.50
2022-12-20T16:04:13.716Z,89.90
2022-12-20T16:06:40.353Z,42.00
2022-12-20T16:09:06.827Z,50.90
2022-12-20T16:11:33.500Z,66.70
2022-12-20T16:14:00.361Z,64.10
2022-12-20T16:16:36.685Z,48.80
2022-12-20T16:19:03.615Z,63.70
2022-12-20T16:21:33.555Z,73.90
2022-12-20T16:24:00.428Z,63.40
2022-12-20T16:26:27.284Z,190.10
2022-12-20T16:28:55.764Z,100.20
2022-12-20T16:31:28.967Z,101.00
2022-12-20T16:33:55.800Z,94.80
2022-12-20T16:36:23.410Z,66.40
2022-12-20T16:38:50.957Z,97.10
2022-12-20T16:41:21.677Z,75.70
2022-12-20T16:43:48.829Z,198.60
2022-12-20T16:46:20.744Z,105.40
2022-12-20T16:48:47.939Z,93.40
2022-12-20T16:51:25.961Z,116.80
2022-12-20T16:54:17.974Z,149.50
2022-12-20T16:56:41.366Z,396.10
2022-12-20T16:59:19.154Z,165.80
2022-12-20T17:01:48.692Z,124.70
2022-12-20T17:04:17.667Z,114.40
2022-12-20T17:06:46.047Z,108.60
2022-12-20T17:09:13.200Z,107.30
2022-12-20T17:11:39.750Z,113.60
2022-12-20T17:14:12.125Z,119.30
2022-12-20T17:16:40.071Z,104.80
2022-12-20T17:19:06.644Z,137.00
2022-12-20T17:24:28.177Z,198.20
2022-12-20T17:26:54.868Z,203.20
2022-12-20T17:29:21.884Z,191.90
2022-12-20T17:31:48.815Z,177.40
2022-12-20T17:34:22.845Z,157.20
2022-12-20T17:36:51.336Z,147.40
2022-12-20T17:39:18.471Z,140.70
2022-12-20T17:41:46.288Z,154.20
2022-12-20T17:44:21.471Z,149.00
2022-12-20T17:46:48.278Z,141.80
2022-12-20T17:49:15.606Z,146.00
2022-12-20T17:51:42.613Z,189.70
2022-12-20T17:54:18.546Z,314.10
2022-12-20T17:56:45.983Z,283.00
2022-12-20T17:59:13.719Z,411.20
2022-12-20T18:01:41.873Z,307.80
2022-12-20T18:04:11.369Z,271.20
2022-12-20T18:06:39.843Z,233.80
2022-12-20T18:09:11.702Z,219.00
2022-12-20T18:11:38.309Z,253.50
2022-12-20T18:14:05.055Z,276.60
2022-12-20T18:16:33.203Z,227.00
2022-12-20T18:19:02.609Z,319.20
2022-12-20T18:21:29.176Z,247.90
2022-12-20T18:23:55.786Z,267.20
2022-12-20T18:26:25.538Z,360.30
2022-12-20T18:28:58.005Z,296.60
2022-12-20T18:31:26.968Z,243.20
2022-12-20T18:33:57.968Z,213.10
2022-12-20T18:38:53.586Z,206.40
2022-12-20T18:41:23.075Z,226.80
2022-12-20T18:43:50.909Z,304.30
2022-12-20T18:46:20.763Z,305.60
2022-12-20T18:48:49.686Z,251.50
2022-12-20T18:51:19.317Z,235.90
2022-12-20T18:53:47.577Z,188.10
2022-12-20T18:56:20.459Z,153.40
2022-12-20T18:58:48.174Z,137.30
2022-12-20T19:01:22.069Z,151.80
2022-12-20T19:03:51.116Z,160.10
2022-12-20T19:06:18.927Z,153.00
2022-12-20T19:08:45.457Z,193.40
2022-12-20T19:11:15.457Z,188.70
2022-12-20T19:13:43.129Z,273.40
2022-12-20T19:16:18.293Z,195.10
2022-12-20T19:18:45.647Z,175.70
2022-12-20T19:21:17.098Z,150.00
2022-12-20T19:23:45.735Z,162.00
2022-12-20T19:26:13.827Z,167.90
2022-12-20T19:28:41.716Z,144.50
2022-12-20T19:31:19.261Z,126.00
2022-12-20T19:33:48.130Z,145.00
2022-12-20T19:36:23.601Z,152.80
2022-12-20T19:38:53.303Z,138.70
2022-12-20T19:41:19.954Z,119.00
2022-12-20T19:43:47.778Z,106.10
2022-12-20T19:46:15.358Z,114.50
2022-12-20T19:48:42.391Z,112.90
2022-12-20T19:51:11.997Z,111.20
2022-12-20T19:53:43.306Z,169.40
2022-12-20T19:56:11.693Z,232.70
2022-12-20T19:58:39.021Z,160.70
2022-12-20T20:01:07.919Z,106.20
2022-12-20T20:03:36.555Z,103.20
2022-12-20T20:06:04.821Z,98.50
2022-12-20T20:08:32.739Z,91.40
2022-12-20T20:11:05.340Z,78.90
2022-12-20T20:13:35.657Z,85.70
2022-12-20T20:16:03.499Z,97.90
2022-12-20T20:18:32.972Z,92.90
2022-12-20T20:20:59.427Z,108.10
2022-12-20T20:23:27.468Z,118.20
2022-12-20T20:25:56.222Z,117.70
2022-12-20T20:28:31.291Z,118.10
2022-12-20T20:30:58.954Z,120.50
2022-12-20T20:33:25.646Z,215.80
2022-12-20T20:36:01.245Z,200.60
2022-12-20T20:38:29.562Z,135.30
2022-12-20T20:40:56.671Z,128.70
2022-12-20T20:43:24.132Z,119.70
2022-12-20T20:45:51.403Z,113.20
2022-12-20T20:48:18.449Z,103.00
2022-12-20T20:50:45.384Z,135.90
2022-12-20T20:53:13.366Z,138.50
2022-12-20T20:55:40.034Z,132.00
2022-12-20T20:58:06.553Z,128.80
2022-12-20T21:00:33.863Z,172.30
2022-12-20T21:03:00.601Z,176.80
2022-12-20T21:08:14.323Z,194.20
2022-12-20T21:10:41.580Z,180.30
2022-12-20T21:13:08.127Z,170.00
2022-12-20T21:15:36.531Z,184.20
2022-12-20T21:18:03.042Z,191.80
2022-12-20T21:20:29.450Z,198.50
2022-12-20T21:22:55.898Z,187.50
2022-12-20T21:25:22.291Z,265.10
2022-12-20T21:27:48.787Z,223.70
2022-12-20T21:30:15.545Z,194.80
2022-12-20T21:32:41.941Z,216.40
2022-12-20T21:35:09.011Z,210.80
2022-12-20T21:37:35.551Z,173.00
2022-12-20T21:40:01.976Z,146.40
2022-12-20T21:42:29.251Z,156.20
2022-12-20T21:44:55.676Z,139.50
2022-12-20T21:47:24.162Z,154.50
2022-12-20T21:49:51.433Z,161.40
2022-12-20T21:52:17.940Z,134.00
2022-12-20T21:54:44.512Z,135.80
2022-12-20T21:57:10.990Z,222.70
2022-12-20T21:59:38.103Z,217.70
2022-12-20T22:02:05.332Z,251.70
2022-12-20T22:04:33.017Z,236.30
2022-12-20T22:06:59.452Z,222.80
2022-12-20T22:09:26.039Z,226.40
2022-12-20T22:11:52.684Z,220.60
2022-12-20T22:14:19.293Z,219.70
2022-12-20T22:16:46.048Z,225.60
2022-12-20T22:19:14.267Z,266.50
2022-12-20T22:21:41.193Z,239.90
2022-12-20T22:24:09.027Z,204.40
2022-12-20T22:26:35.571Z,202.00
2022-12-20T22:29:05.070Z,185.30
2022-12-20T22:31:32.452Z,189.30
2022-12-20T22:33:59.895Z,186.20
2022-12-20T22:36:26.653Z,184.90
2022-12-20T22:38:57.382Z,176.40
2022-12-20T22:41:29.804Z,176.40
2022-12-20T22:43:59.069Z,196.10
2022-12-20T22:46:28.663Z,221.30
2022-12-20T22:48:55.524Z,246.80
2022-12-20T22:51:23.585Z,338.10
2022-12-20T22:53:50.122Z,336.80
2022-12-20T22:56:18.511Z,309.50
2022-12-20T22:58:46.172Z,197.10
2022-12-20T23:01:14.623Z,181.30
2022-12-20T23:03:41.871Z,199.80
2022-12-20T23:06:12.677Z,212.50
2022-12-20T23:08:40.143Z,226.40
2022-12-20T23:11:15.164Z,185.20
2022-12-20T23:13:42.227Z,242.40
2022-12-20T23:16:08.866Z,132.20
2022-12-20T23:18:35.475Z,155.70
2022-12-20T23:21:02.001Z,144.00
2022-12-20T23:23:28.433Z,142.80
2022-12-20T23:25:54.959Z,129.70
2022-12-20T23:28:21.429Z,135.80
2022-12-20T23:30:47.957Z,133.00
2022-12-20T23:33:14.506Z,131.30
2022-12-20T23:35:40.938Z,118.20
2022-12-20T23:38:07.339Z,117.10
2022-12-20T23:40:33.913Z,117.70
2022-12-20T23:43:00.447Z,120.60
2022-12-20T23:45:26.989Z,121.10
2022-12-20T23:47:53.526Z,140.20
2022-12-20T23:50:19.949Z,135.60
2022-12-20T23:52:46.388Z,134.40
2022-12-20T23:55:13.700Z,133.20
2022-12-20T23:57:40.091Z,129.30
